Time,TemperatureF,DewpointF,PressureIn,WindDirection,WindDirectionDegrees,WindSpeedMPH,WindSpeedGustMPH,Humidity,HourlyPrecipIn,Conditions,Clouds,dailyrainin,SoftwareType,DateUTC
2013-01-20 08:10:00,47.8,17.8,30.18,East,93,2.0,2.0,30,0.00,,,0.00,Wunderground v.1.15,2013-01-20 16:10:00,
2013-01-20 08:15:00,48.4,18.3,30.19,ESE,104,1.0,2.0,30,0.00,,,0.00,Wunderground v.1.15,2013-01-20 16:15:00,
2013-01-20 08:25:00,49.3,19.9,30.19,East,83,1.0,1.0,31,0.00,,,0.00,Wunderground v.1.15,2013-01-20 16:25:00,
2013-01-20 08:35:00,50.4,19.3,30.18,East,89,1.0,1.0,29,0.00,,,0.00,Wunderground v.1.15,2013-01-20 16:35:00,
2013-01-20 08:40:00,50.6,18.6,30.18,East,98,1.0,2.0,28,0.00,,,0.00,Wunderground v.1.15,2013-01-20 16:40:00,
2013-01-20 08:50:00,51.3,19.3,30.19,ENE,76,2.0,2.0,28,0.00,,,0.00,Wunderground v.1.15,2013-01-20 16:50:00,
2013-01-20 09:00:00,52.8,19.7,30.19,ENE,60,1.0,1.0,27,0.00,,,0.00,Wunderground v.1.15,2013-01-20 17:00:00,
2013-01-20 09:10:00,53.7,19.6,30.19,ESE,105,1.0,5.0,26,0.00,,,0.00,Wunderground v.1.15,2013-01-20 17:10:00,
2013-01-20 09:20:00,54.0,19.8,30.19,ESE,103,2.0,2.0,26,0.00,,,0.00,Wunderground v.1.15,2013-01-20 17:20:00,
2013-01-20 09:30:00,55.2,19.9,30.19,ENE,70,1.0,5.0,25,0.00,,,0.00,Wunderground v.1.15,2013-01-20 17:30:00,
2013-01-20 09:40:00,55.9,20.5,30.19,East,94,1.0,5.0,25,0.00,,,0.00,Wunderground v.1.15,2013-01-20 17:40:00,
2013-01-20 11:00:00,59.4,26.2,30.18,WNW,290,1.0,1.0,28,0.00,,,0.00,Wunderground v.1.15,2013-01-20 19:00:00,
2013-01-20 11:05:00,59.6,27.3,30.18,SW,233,1.0,1.0,29,0.00,,,0.00,Wunderground v.1.15,2013-01-20 19:05:00,
2013-01-20 11:15:00,59.4,27.1,30.18,West,263,1.0,1.0,29,0.00,,,0.00,Wunderground v.1.15,2013-01-20 19:15:00,
2013-01-20 11:25:00,59.3,27.0,30.18,SSW,198,1.0,1.0,29,0.00,,,0.00,Wunderground v.1.15,2013-01-20 19:25:00,
2013-01-20 11:30:00,59.3,27.8,30.18,West,271,1.0,1.0,30,0.00,,,0.00,Wunderground v.1.15,2013-01-20 19:30:00,
2013-01-20 11:40:00,59.9,27.5,30.17,West,267,0.0,2.0,29,0.00,,,0.00,Wunderground v.1.15,2013-01-20 19:40:00,
2013-01-20 11:50:00,60.0,28.4,30.17,WSW,256,1.0,1.0,30,0.00,,,0.00,Wunderground v.1.15,2013-01-20 19:50:00,
2013-01-20 12:05:00,60.7,28.2,30.16,SW,229,1.0,1.0,29,0.00,,,0.00,Wunderground v.1.15,2013-01-20 20:05:00,
2013-01-20 12:10:00,60.9,27.5,30.16,NW,317,1.0,1.0,28,0.00,,,0.00,Wunderground v.1.15,2013-01-20 20:10:00,
2013-01-20 12:20:00,61.4,28.0,30.15,West,276,0.0,1.0,28,0.00,,,0.00,Wunderground v.1.15,2013-01-20 20:20:00,
2013-01-20 17:26:00,51.7,32.6,30.11,WSW,248,0.0,-999.0,48,0.00,,,0.00,Wunderground v.1.15,2013-01-21 01:26:00,
2013-01-20 17:31:00,51.7,32.6,30.11,WSW,248,0.0,-999.0,48,0.00,,,0.00,Wunderground v.1.15,2013-01-21 01:31:00,
2013-01-20 17:36:00,51.7,32.6,30.11,WSW,248,0.0,-999.0,48,0.00,,,0.00,Wunderground v.1.15,2013-01-21 01:36:00,
2013-01-20 17:41:00,51.7,32.6,30.11,WSW,248,0.0,-999.0,48,0.00,,,0.00,Wunderground v.1.15,2013-01-21 01:41:00,
2013-01-20 17:46:00,50.1,32.7,30.13,SSW,203,0.0,-999.0,51,0.00,,,0.00,Wunderground v.1.15,2013-01-21 01:46:00,
2013-01-20 17:51:00,50.1,32.7,30.13,SSW,203,0.0,-999.0,51,0.00,,,0.00,Wunderground v.1.15,2013-01-21 01:51:00,
2013-01-20 17:56:00,50.1,32.7,30.13,SSW,203,0.0,-999.0,51,0.00,,,0.00,Wunderground v.1.15,2013-01-21 01:56:00,
2013-01-20 18:01:00,50.1,32.7,30.13,SSW,203,0.0,-999.0,51,0.00,,,0.00,Wunderground v.1.15,2013-01-21 02:01:00,
2013-01-20 18:06:00,50.1,32.7,30.13,SSW,203,0.0,-999.0,51,0.00,,,0.00,Wunderground v.1.15,2013-01-21 02:06:00,
2013-01-20 18:11:00,50.1,32.7,30.13,SSW,203,0.0,-999.0,51,0.00,,,0.00,Wunderground v.1.15,2013-01-21 02:11:00,
2013-01-20 18:16:00,49.0,34.0,30.13,N/A,-737280,0.0,-999.0,56,0.00,,,0.00,Wunderground v.1.15,2013-01-21 02:16:00,
2013-01-20 18:21:00,49.0,34.0,30.13,N/A,-737280,0.0,-999.0,56,0.00,,,0.00,Wunderground v.1.15,2013-01-21 02:21:00,
2013-01-20 18:26:00,49.0,34.0,30.13,N/A,-737280,0.0,-999.0,56,0.00,,,0.00,Wunderground v.1.15,2013-01-21 02:26:00,
2013-01-20 18:31:00,49.0,34.0,30.13,N/A,-737280,0.0,-999.0,56,0.00,,,0.00,Wunderground v.1.15,2013-01-21 02:31:00,
2013-01-20 18:36:00,49.0,34.0,30.13,N/A,-737280,0.0,-999.0,56,0.00,,,0.00,Wunderground v.1.15,2013-01-21 02:36:00,
2013-01-20 18:41:00,49.0,34.0,30.13,N/A,-737280,0.0,-999.0,56,0.00,,,0.00,Wunderground v.1.15,2013-01-21 02:41:00,
2013-01-20 18:46:00,48.6,34.5,30.14,East,90,0.0,-999.0,58,0.00,,,0.00,Wunderground v.1.15,2013-01-21 02:46:00,
2013-01-20 18:51:00,48.6,34.5,30.14,East,90,0.0,-999.0,58,0.00,,,0.00,Wunderground v.1.15,2013-01-21 02:51:00,
2013-01-20 18:56:00,48.6,34.5,30.14,East,90,0.0,-999.0,58,0.00,,,0.00,Wunderground v.1.15,2013-01-21 02:56:00,
2013-01-20 19:01:00,48.6,34.5,30.14,East,90,0.0,-999.0,58,0.00,,,0.00,Wunderground v.1.15,2013-01-21 03:01:00,
2013-01-20 19:06:00,48.6,34.5,30.14,East,90,0.0,-999.0,58,0.00,,,0.00,Wunderground v.1.15,2013-01-21 03:06:00,
2013-01-20 19:11:00,48.6,34.5,30.14,East,90,0.0,-999.0,58,0.00,,,0.00,Wunderground v.1.15,2013-01-21 03:11:00,
2013-01-20 19:16:00,48.8,34.7,30.13,East,90,0.0,-999.0,58,0.00,,,0.00,Wunderground v.1.15,2013-01-21 03:16:00,
2013-01-20 19:21:00,48.8,34.7,30.13,East,90,0.0,-999.0,58,0.00,,,0.00,Wunderground v.1.15,2013-01-21 03:21:00,
2013-01-20 19:26:00,48.8,34.7,30.13,East,90,0.0,-999.0,58,0.00,,,0.00,Wunderground v.1.15,2013-01-21 03:26:00,
2013-01-20 19:36:00,48.8,34.7,30.13,East,90,0.0,-999.0,58,0.00,,,0.00,Wunderground v.1.15,2013-01-21 03:36:00,
2013-01-20 19:41:00,48.8,34.7,30.13,East,90,0.0,-999.0,58,0.00,,,0.00,Wunderground v.1.15,2013-01-21 03:41:00,
2013-01-20 19:46:00,48.7,35.0,30.14,East,90,0.0,-999.0,59,0.00,,,0.00,Wunderground v.1.15,2013-01-21 03:46:00,
2013-01-20 19:51:00,48.7,35.0,30.14,East,90,0.0,-999.0,59,0.00,,,0.00,Wunderground v.1.15,2013-01-21 03:51:00,
2013-01-20 19:56:00,48.7,35.0,30.14,East,90,0.0,-999.0,59,0.00,,,0.00,Wunderground v.1.15,2013-01-21 03:56:00,
2013-01-20 20:01:00,48.7,35.0,30.14,East,90,0.0,-999.0,59,0.00,,,0.00,Wunderground v.1.15,2013-01-21 04:01:00,
2013-01-20 20:06:00,48.7,35.0,30.14,East,90,0.0,-999.0,59,0.00,,,0.00,Wunderground v.1.15,2013-01-21 04:06:00,
2013-01-20 20:11:00,48.7,35.0,30.14,East,90,0.0,-999.0,59,0.00,,,0.00,Wunderground v.1.15,2013-01-21 04:11:00,
2013-01-20 20:16:00,48.3,35.9,30.14,SE,135,0.0,-999.0,62,0.00,,,0.00,Wunderground v.1.15,2013-01-21 04:16:00,
2013-01-20 20:21:00,48.3,35.9,30.14,SE,135,0.0,-999.0,62,0.00,,,0.00,Wunderground v.1.15,2013-01-21 04:21:00,
2013-01-20 20:26:00,48.3,35.9,30.14,SE,135,0.0,-999.0,62,0.00,,,0.00,Wunderground v.1.15,2013-01-21 04:26:00,
2013-01-20 20:31:00,48.3,35.9,30.14,SE,135,0.0,-999.0,62,0.00,,,0.00,Wunderground v.1.15,2013-01-21 04:31:00,
2013-01-20 20:36:00,48.3,35.9,30.14,SE,135,0.0,-999.0,62,0.00,,,0.00,Wunderground v.1.15,2013-01-21 04:36:00,
2013-01-20 20:41:00,48.3,35.9,30.14,SE,135,0.0,-999.0,62,0.00,,,0.00,Wunderground v.1.15,2013-01-21 04:41:00,
2013-01-20 20:46:00,46.5,35.0,30.15,SE,135,0.0,-999.0,64,0.00,,,0.00,Wunderground v.1.15,2013-01-21 04:46:00,
2013-01-20 20:51:00,46.5,35.0,30.15,SE,135,0.0,-999.0,64,0.00,,,0.00,Wunderground v.1.15,2013-01-21 04:51:00,
2013-01-20 20:56:00,46.5,35.0,30.15,SE,135,0.0,-999.0,64,0.00,,,0.00,Wunderground v.1.15,2013-01-21 04:56:00,
2013-01-20 21:01:00,46.5,35.0,30.15,SE,135,0.0,-999.0,64,0.00,,,0.00,Wunderground v.1.15,2013-01-21 05:01:00,
2013-01-20 21:06:00,46.5,35.0,30.15,SE,135,0.0,-999.0,64,0.00,,,0.00,Wunderground v.1.15,2013-01-21 05:06:00,
2013-01-20 21:11:00,46.5,35.0,30.15,SE,135,0.0,-999.0,64,0.00,,,0.00,Wunderground v.1.15,2013-01-21 05:11:00,
2013-01-20 21:16:00,45.4,35.1,30.15,East,90,1.0,-999.0,67,0.00,,,0.00,Wunderground v.1.15,2013-01-21 05:16:00,
2013-01-20 21:21:00,45.4,35.1,30.15,East,90,1.0,-999.0,67,0.00,,,0.00,Wunderground v.1.15,2013-01-21 05:21:00,
2013-01-20 21:26:00,45.4,35.1,30.15,East,90,1.0,-999.0,67,0.00,,,0.00,Wunderground v.1.15,2013-01-21 05:26:00,
2013-01-20 21:31:00,45.4,35.1,30.15,East,90,1.0,-999.0,67,0.00,,,0.00,Wunderground v.1.15,2013-01-21 05:31:00,
2013-01-20 21:36:00,45.4,35.1,30.15,East,90,1.0,-999.0,67,0.00,,,0.00,Wunderground v.1.15,2013-01-21 05:36:00,
2013-01-20 21:41:00,45.4,35.1,30.15,East,90,1.0,-999.0,67,0.00,,,0.00,Wunderground v.1.15,2013-01-21 05:41:00,
2013-01-20 21:46:00,46.0,34.9,30.16,East,90,0.0,-999.0,65,0.00,,,0.00,Wunderground v.1.15,2013-01-21 05:46:00,
2013-01-20 21:51:00,46.0,34.9,30.16,East,90,0.0,-999.0,65,0.00,,,0.00,Wunderground v.1.15,2013-01-21 05:51:00,
2013-01-20 21:56:00,46.0,34.9,30.16,East,90,0.0,-999.0,65,0.00,,,0.00,Wunderground v.1.15,2013-01-21 05:56:00,
2013-01-20 22:01:00,46.0,34.9,30.16,East,90,0.0,-999.0,65,0.00,,,0.00,Wunderground v.1.15,2013-01-21 06:01:00,
2013-01-20 22:06:00,46.0,34.9,30.16,East,90,0.0,-999.0,65,0.00,,,0.00,Wunderground v.1.15,2013-01-21 06:06:00,
2013-01-20 22:11:00,46.0,34.9,30.16,East,90,0.0,-999.0,65,0.00,,,0.00,Wunderground v.1.15,2013-01-21 06:11:00,
2013-01-20 22:16:00,46.5,33.4,30.16,East,90,0.0,-999.0,60,0.00,,,0.00,Wunderground v.1.15,2013-01-21 06:16:00,
2013-01-20 22:21:00,46.5,33.4,30.16,East,90,0.0,-999.0,60,0.00,,,0.00,Wunderground v.1.15,2013-01-21 06:21:00,
2013-01-20 22:26:00,46.5,33.4,30.16,East,90,0.0,-999.0,60,0.00,,,0.00,Wunderground v.1.15,2013-01-21 06:26:00,
2013-01-20 22:31:00,46.5,33.4,30.16,East,90,0.0,-999.0,60,0.00,,,0.00,Wunderground v.1.15,2013-01-21 06:31:00,
2013-01-20 22:36:00,46.5,33.4,30.16,East,90,0.0,-999.0,60,0.00,,,0.00,Wunderground v.1.15,2013-01-21 06:36:00,
2013-01-20 22:41:00,46.5,33.4,30.16,East,90,0.0,-999.0,60,0.00,,,0.00,Wunderground v.1.15,2013-01-21 06:41:00,
2013-01-20 22:46:00,46.7,32.7,30.16,ENE,68,0.0,-999.0,58,0.00,,,0.00,Wunderground v.1.15,2013-01-21 06:46:00,
2013-01-20 22:51:00,46.7,32.7,30.16,ENE,68,0.0,-999.0,58,0.00,,,0.00,Wunderground v.1.15,2013-01-21 06:51:00,
2013-01-20 22:56:00,46.7,32.7,30.16,ENE,68,0.0,-999.0,58,0.00,,,0.00,Wunderground v.1.15,2013-01-21 06:56:00,
2013-01-20 23:01:00,46.7,32.7,30.16,ENE,68,0.0,-999.0,58,0.00,,,0.00,Wunderground v.1.15,2013-01-21 07:01:00,
2013-01-20 23:06:00,46.7,32.7,30.16,ENE,68,0.0,-999.0,58,0.00,,,0.00,Wunderground v.1.15,2013-01-21 07:06:00,
2013-01-20 23:11:00,46.7,32.7,30.16,ENE,68,0.0,-999.0,58,0.00,,,0.00,Wunderground v.1.15,2013-01-21 07:11:00,
2013-01-20 23:16:00,47.0,31.2,30.16,East,90,1.0,-999.0,54,0.00,,,0.00,Wunderground v.1.15,2013-01-21 07:16:00,
2013-01-20 23:21:00,47.0,31.2,30.16,East,90,1.0,-999.0,54,0.00,,,0.00,Wunderground v.1.15,2013-01-21 07:21:00,
2013-01-20 23:26:00,47.0,31.2,30.16,East,90,1.0,-999.0,54,0.00,,,0.00,Wunderground v.1.15,2013-01-21 07:26:00,
2013-01-20 23:31:00,47.0,31.2,30.16,East,90,1.0,-999.0,54,0.00,,,0.00,Wunderground v.1.15,2013-01-21 07:31:00,
2013-01-20 23:36:00,47.0,31.2,30.16,East,90,1.0,-999.0,54,0.00,,,0.00,Wunderground v.1.15,2013-01-21 07:36:00,
2013-01-20 23:41:00,47.0,31.2,30.16,East,90,1.0,-999.0,54,0.00,,,0.00,Wunderground v.1.15,2013-01-21 07:41:00,
2013-01-20 23:46:00,46.1,29.0,30.15,ENE,68,1.0,-999.0,51,0.00,,,0.00,Wunderground v.1.15,2013-01-21 07:46:00,
2013-01-20 23:51:00,46.1,29.0,30.15,ENE,68,1.0,-999.0,51,0.00,,,0.00,Wunderground v.1.15,2013-01-21 07:51:00,
2013-01-20 23:56:00,46.1,29.0,30.15,ENE,68,1.0,-999.0,51,0.00,,,0.00,Wunderground v.1.15,2013-01-21 07:56:00,